Tijuana, BCN, Mexico
Current Conditions -  °F | °C
As of 7:41 AM on Tuesday 21 Oct 2014 (Local Time) from MMTJ Reporting Station
Haze Haze  
Wind Chill: 64°   Ceiling: 1000
Heat Index: 64°   Visibility: 3mi
Dew Point: 57°   Wind: 6mph
Humidity: 77%   Direction: 330°NNW
Pressure: 29.93"   Gusts: NA
Location:  32.53°N, 117.02°W
Report Text: MMTJ 211441Z 33005KT 3SM BR BKN010 18/14 A2993 RMK SLP140 54000 959 8/600
Loading
Personal Weather Stations






























Interactive Weather Map
Tropical Storm Tracking
New forecast layout! Learn more

10-Day Weather Forecast

Advertisements
Track Severe Weather on mobile